Time;durP1;ratioP1;P1;durP2;ratioP2;P2;SDS_P1;SDS_P2;PMS_P1;PMS_P2;Temp;Humidity;BMP_temperature;BMP_pressure;BME280_temperature;BME280_humidity;BME280_pressure;Samples;Min_cycle;Max_cycle;Signal;HPM_P1;HPM_P2
2022/05/07 00:01:46;;;;;;;8.02;4.43;;;;;;;;;;5114925;27;20463;-86
2022/05/07 00:04:12;;;;;;;7.22;4.30;;;;;;;;;;5114384;27;20438;-85
2022/05/07 00:06:37;;;;;;;8.60;4.35;;;;;;;;;;5133351;27;20113;-87
2022/05/07 00:09:03;;;;;;;5.55;4.18;;;;;;;;;;5114644;27;20383;-86
2022/05/07 00:11:28;;;;;;;7.13;4.35;;;;;;;;;;5133101;27;20256;-84
2022/05/07 00:13:54;;;;;;;6.07;4.00;;;;;;;;;;5114524;27;20137;-84
2022/05/07 00:19:03;;;;;;;6.60;4.50;;;;;;;;;;5132831;27;20058;-85
2022/05/07 00:21:29;;;;;;;4.80;4.22;;;;;;;;;;5132563;27;20482;-85
2022/05/07 00:23:55;;;;;;;5.57;3.83;;;;;;;;;;5132732;27;20038;-85
2022/05/07 00:26:20;;;;;;;8.48;4.25;;;;;;;;;;5132885;27;20046;-86
2022/05/07 00:28:46;;;;;;;5.57;3.90;;;;;;;;;;5132699;27;20062;-84
2022/05/07 00:31:12;;;;;;;6.03;3.80;;;;;;;;;;5113950;27;20035;-82
2022/05/07 00:33:38;;;;;;;6.50;3.75;;;;;;;;;;5132676;27;20034;-87
2022/05/07 00:36:03;;;;;;;7.18;3.90;;;;;;;;;;5132727;27;20031;-88
2022/05/07 00:38:29;;;;;;;4.43;3.50;;;;;;;;;;5114190;28;20076;-86
2022/05/07 00:40:55;;;;;;;7.28;3.90;;;;;;;;;;5113146;28;20027;-86
2022/05/07 00:43:20;;;;;;;4.03;3.13;;;;;;;;;;5131797;27;20121;-86
2022/05/07 00:45:46;;;;;;;10.13;4.10;;;;;;;;;;5114084;28;20031;-84
2022/05/07 00:48:14;;;;;;;6.97;4.10;;;;;;;;;;5132555;28;20019;-85
2022/05/07 00:53:24;;;;;;;4.95;3.67;;;;;;;;;;5132279;28;20073;-84
2022/05/07 00:55:51;;;;;;;7.18;3.85;;;;;;;;;;5131788;27;20047;-84
2022/05/07 00:58:17;;;;;;;5.90;3.85;;;;;;;;;;5135885;27;20027;-84
2022/05/07 01:00:45;;;;;;;6.82;4.32;;;;;;;;;;5134540;27;20071;-86
2022/05/07 01:03:12;;;;;;;5.20;4.32;;;;;;;;;;5136541;27;20079;-84
2022/05/07 01:05:39;;;;;;;6.97;4.40;;;;;;;;;;5117856;27;20030;-84
2022/05/07 01:08:06;;;;;;;5.40;4.05;;;;;;;;;;5116978;27;20034;-85
2022/05/07 01:10:32;;;;;;;5.30;4.13;;;;;;;;;;5136390;27;20034;-86
2022/05/07 01:12:57;;;;;;;7.00;3.97;;;;;;;;;;5118003;27;20023;-83
2022/05/07 01:15:24;;;;;;;5.45;4.68;;;;;;;;;;5136307;27;20027;-83
2022/05/07 01:17:50;;;;;;;4.18;3.78;;;;;;;;;;5136032;27;20063;-84
2022/05/07 01:20:15;;;;;;;6.50;4.38;;;;;;;;;;5135052;27;20051;-84
2022/05/07 01:22:42;;;;;;;7.38;4.25;;;;;;;;;;5117522;27;20083;-85
2022/05/07 01:25:08;;;;;;;6.43;4.05;;;;;;;;;;5135900;27;20097;-83
2022/05/07 01:27:34;;;;;;;6.50;4.63;;;;;;;;;;5136366;27;20148;-85
2022/05/07 01:29:59;;;;;;;5.03;4.03;;;;;;;;;;5135873;27;20023;-85
2022/05/07 01:32:25;;;;;;;6.90;4.47;;;;;;;;;;5117392;27;20044;-85
2022/05/07 01:34:53;;;;;;;6.15;4.25;;;;;;;;;;5134716;27;20102;-85
2022/05/07 01:37:19;;;;;;;6.03;4.50;;;;;;;;;;5117135;27;20027;-84
2022/05/07 01:39:44;;;;;;;7.72;4.82;;;;;;;;;;5117276;27;20034;-84
2022/05/07 01:42:10;;;;;;;7.55;4.85;;;;;;;;;;5135535;27;20047;-86
2022/05/07 01:44:35;;;;;;;5.32;4.07;;;;;;;;;;5117384;27;20045;-85
2022/05/07 01:49:45;;;;;;;5.53;4.68;;;;;;;;;;5135795;27;20045;-86
2022/05/07 01:52:10;;;;;;;6.78;4.93;;;;;;;;;;5116616;27;20376;-86
2022/05/07 01:54:36;;;;;;;5.68;4.70;;;;;;;;;;5135778;27;20030;-87
2022/05/07 01:57:02;;;;;;;7.93;4.13;;;;;;;;;;5117242;27;20027;-88
2022/05/07 01:59:28;;;;;;;6.20;4.28;;;;;;;;;;5136081;27;20018;-87
2022/05/07 02:01:53;;;;;;;6.70;4.43;;;;;;;;;;5116772;27;20030;-85
2022/05/07 02:04:19;;;;;;;5.30;4.60;;;;;;;;;;5115628;27;20019;-86
2022/05/07 02:06:44;;;;;;;5.65;4.07;;;;;;;;;;5135185;27;20023;-82
2022/05/07 02:09:10;;;;;;;5.38;4.50;;;;;;;;;;5133746;27;20118;-82
2022/05/07 02:11:35;;;;;;;8.18;4.95;;;;;;;;;;5135039;27;20064;-85
2022/05/07 02:14:01;;;;;;;6.90;4.40;;;;;;;;;;5116577;27;20023;-85
2022/05/07 02:16:26;;;;;;;12.20;4.05;;;;;;;;;;5116502;27;20502;-85
2022/05/07 02:18:52;;;;;;;8.27;4.65;;;;;;;;;;5134980;27;20061;-82
2022/05/07 02:21:18;;;;;;;4.68;3.72;;;;;;;;;;5114106;27;20046;-86
2022/05/07 02:23:43;;;;;;;7.35;3.85;;;;;;;;;;5134326;27;20030;-85
2022/05/07 02:26:09;;;;;;;4.63;3.28;;;;;;;;;;5133750;27;20054;-86
2022/05/07 02:28:34;;;;;;;8.10;3.38;;;;;;;;;;5134655;27;20091;-84
2022/05/07 02:31:01;;;;;;;4.35;3.00;;;;;;;;;;5116915;27;20065;-85
2022/05/07 02:33:26;;;;;;;6.45;3.70;;;;;;;;;;5133514;27;20023;-87
2022/05/07 02:35:51;;;;;;;7.78;3.50;;;;;;;;;;5116920;27;20030;-89
2022/05/07 02:38:17;;;;;;;6.20;3.58;;;;;;;;;;5116896;27;21551;-87
2022/05/07 02:43:37;;;;;;;4.80;3.28;;;;;;;;;;5075521;27;20175;-86
2022/05/07 02:46:02;;;;;;;6.28;3.90;;;;;;;;;;5115492;27;20052;-84
2022/05/07 02:48:28;;;;;;;4.88;3.20;;;;;;;;;;5134450;27;20031;-86
2022/05/07 02:50:54;;;;;;;6.15;2.85;;;;;;;;;;5115616;27;20107;-85
2022/05/07 02:53:20;;;;;;;6.13;3.60;;;;;;;;;;5116023;27;20091;-86
2022/05/07 02:55:46;;;;;;;5.93;3.30;;;;;;;;;;5134911;27;20466;-86
2022/05/07 02:58:11;;;;;;;4.60;3.20;;;;;;;;;;5133896;27;20079;-83
2022/05/07 03:00:37;;;;;;;3.72;3.22;;;;;;;;;;5115700;27;20106;-84
2022/05/07 03:03:02;;;;;;;5.25;3.40;;;;;;;;;;5134334;27;20106;-85
2022/05/07 03:05:29;;;;;;;4.72;3.35;;;;;;;;;;5116077;27;20027;-89
2022/05/07 03:07:58;;;;;;;4.60;3.63;;;;;;;;;;5115812;27;20575;-85
2022/05/07 03:10:23;;;;;;;5.95;3.90;;;;;;;;;;5115449;27;20088;-87
2022/05/07 03:12:48;;;;;;;6.68;4.55;;;;;;;;;;5133994;27;20479;-83
2022/05/07 03:15:14;;;;;;;5.75;4.00;;;;;;;;;;5133475;27;20109;-84
2022/05/07 03:17:39;;;;;;;7.90;3.45;;;;;;;;;;5115011;27;20046;-84
2022/05/07 03:20:09;;;;;;;6.50;4.18;;;;;;;;;;5115436;27;20140;-85
2022/05/07 03:22:35;;;;;;;;;;;;;;;;;;5134332;27;20457;-86
2022/05/07 03:25:00;;;;;;;4.80;4.03;;;;;;;;;;5133922;27;19962;-84
2022/05/07 03:27:29;;;;;;;6.35;4.22;;;;;;;;;;5115358;27;20110;-83
2022/05/07 03:29:54;;;;;;;5.55;4.18;;;;;;;;;;5133961;27;20030;-83
2022/05/07 03:32:20;;;;;;;7.30;4.50;;;;;;;;;;5114081;27;20024;-87
2022/05/07 03:34:45;;;;;;;6.00;4.13;;;;;;;;;;5115400;27;20102;-87
2022/05/07 03:37:12;;;;;;;8.48;4.10;;;;;;;;;;5133991;27;20493;-83
2022/05/07 03:39:38;;;;;;;7.25;3.97;;;;;;;;;;5115662;27;20034;-85
2022/05/07 03:42:04;;;;;;;4.95;4.40;;;;;;;;;;5133560;27;20115;-87
2022/05/07 03:44:29;;;;;;;8.18;3.58;;;;;;;;;;5115083;27;20110;-84
2022/05/07 03:46:55;;;;;;;5.53;3.75;;;;;;;;;;5114937;27;20031;-85
2022/05/07 03:49:20;;;;;;;5.32;4.05;;;;;;;;;;5114924;27;20027;-85
2022/05/07 03:54:30;;;;;;;6.45;3.80;;;;;;;;;;5134031;27;20061;-85
2022/05/07 03:56:55;;;;;;;4.65;3.85;;;;;;;;;;5133577;27;20051;-84
2022/05/07 03:59:20;;;;;;;5.97;3.30;;;;;;;;;;5133221;27;20393;-85
2022/05/07 04:01:46;;;;;;;4.72;3.65;;;;;;;;;;5133311;27;20378;-86
2022/05/07 04:04:11;;;;;;;6.50;3.50;;;;;;;;;;5133278;27;20041;-86
2022/05/07 04:06:37;;;;;;;6.47;3.90;;;;;;;;;;5133289;27;20079;-83
2022/05/07 04:09:02;;;;;;;6.18;3.80;;;;;;;;;;5133093;27;20024;-84
2022/05/07 04:11:28;;;;;;;6.07;4.00;;;;;;;;;;5132829;27;20023;-84
2022/05/07 04:13:53;;;;;;;5.45;4.22;;;;;;;;;;5133284;27;20073;-83
2022/05/07 04:16:19;;;;;;;6.22;4.30;;;;;;;;;;5114364;27;20031;-85
2022/05/07 04:18:44;;;;;;;5.22;3.60;;;;;;;;;;5133305;27;20370;-85
2022/05/07 04:21:10;;;;;;;6.55;3.90;;;;;;;;;;5132658;27;20420;-84
2022/05/07 04:23:35;;;;;;;4.53;3.20;;;;;;;;;;5114474;27;20031;-84
2022/05/07 04:26:00;;;;;;;5.28;3.60;;;;;;;;;;5114451;27;20103;-84
2022/05/07 04:28:26;;;;;;;5.63;4.20;;;;;;;;;;5132797;27;20053;-83
2022/05/07 04:30:51;;;;;;;4.90;3.85;;;;;;;;;;5113913;27;20030;-84
2022/05/07 04:33:17;;;;;;;4.50;3.30;;;;;;;;;;5132519;27;20027;-83
2022/05/07 04:35:42;;;;;;;5.65;3.67;;;;;;;;;;5130373;27;20060;-85
2022/05/07 04:38:08;;;;;;;6.57;3.83;;;;;;;;;;5132722;27;20058;-86
2022/05/07 04:40:33;;;;;;;5.53;3.63;;;;;;;;;;5132663;27;20027;-87
2022/05/07 04:42:59;;;;;;;4.72;3.35;;;;;;;;;;5113800;27;20541;-86
2022/05/07 04:45:25;;;;;;;4.25;3.08;;;;;;;;;;5114240;28;20019;-86
2022/05/07 04:48:00;;;;;;;9.32;3.75;;;;;;;;;;5114118;28;20106;-86
2022/05/07 04:50:25;;;;;;;7.15;3.88;;;;;;;;;;5113289;28;20023;-85
2022/05/07 04:52:51;;;;;;;6.70;4.18;;;;;;;;;;5113999;28;20056;-84
2022/05/07 04:55:16;;;;;;;6.30;4.15;;;;;;;;;;5132280;28;20027;-85
2022/05/07 04:57:42;;;;;;;6.20;4.20;;;;;;;;;;5109402;28;20023;-85
2022/05/07 05:00:08;;;;;;;8.05;3.55;;;;;;;;;;5132251;28;20025;-84
2022/05/07 05:02:34;;;;;;;5.53;3.83;;;;;;;;;;5112396;28;20110;-83
2022/05/07 05:04:59;;;;;;;4.60;3.22;;;;;;;;;;5132437;28;20419;-85
2022/05/07 05:07:25;;;;;;;6.47;3.50;;;;;;;;;;5132040;28;20015;-85
2022/05/07 05:09:51;;;;;;;4.55;3.20;;;;;;;;;;5132143;28;20386;-85
2022/05/07 05:12:17;;;;;;;8.13;4.00;;;;;;;;;;5131239;28;20091;-84
2022/05/07 05:15:03;;;;;;;5.50;3.33;;;;;;;;;;5132593;28;20027;-86
2022/05/07 05:17:28;;;;;;;10.45;3.70;;;;;;;;;;5131476;28;20101;-84
2022/05/07 05:19:54;;;;;;;5.80;3.63;;;;;;;;;;5132745;28;20031;-85
2022/05/07 05:22:20;;;;;;;5.28;3.83;;;;;;;;;;5113542;28;20498;-85
2022/05/07 05:24:46;;;;;;;4.85;3.58;;;;;;;;;;5113765;28;20023;-84
2022/05/07 05:27:11;;;;;;;5.05;3.10;;;;;;;;;;5132332;28;20023;-85
2022/05/07 05:29:37;;;;;;;7.45;3.60;;;;;;;;;;5132325;28;20115;-85
2022/05/07 05:32:02;;;;;;;4.50;3.20;;;;;;;;;;5113454;28;20057;-86
2022/05/07 05:34:28;;;;;;;3.75;3.00;;;;;;;;;;5113689;28;20037;-86
2022/05/07 05:36:54;;;;;;;7.65;3.25;;;;;;;;;;5113749;28;20351;-85
2022/05/07 05:39:19;;;;;;;5.35;3.47;;;;;;;;;;5109657;28;20019;-86
2022/05/07 05:41:45;;;;;;;7.55;3.42;;;;;;;;;;5132308;28;20023;-85
2022/05/07 05:44:11;;;;;;;6.95;3.80;;;;;;;;;;5116875;27;20114;-87
2022/05/07 05:46:37;;;;;;;5.80;3.58;;;;;;;;;;5117525;27;20367;-86
2022/05/07 05:49:03;;;;;;;6.30;3.55;;;;;;;;;;5117108;27;20023;-85
2022/05/07 05:51:28;;;;;;;7.15;2.95;;;;;;;;;;5135817;27;20034;-87
2022/05/07 05:53:54;;;;;;;8.77;3.65;;;;;;;;;;5135760;27;20092;-86
2022/05/07 05:56:19;;;;;;;5.57;3.85;;;;;;;;;;5135039;27;20091;-84
2022/05/07 05:58:45;;;;;;;7.78;3.85;;;;;;;;;;5116430;27;20058;-84
2022/05/07 06:01:11;;;;;;;7.68;3.95;;;;;;;;;;5135821;27;20062;-85
2022/05/07 06:03:37;;;;;;;7.78;4.07;;;;;;;;;;5135097;27;20015;-86
2022/05/07 06:06:03;;;;;;;8.50;3.53;;;;;;;;;;5117134;27;20027;-86
2022/05/07 06:08:29;;;;;;;7.72;4.38;;;;;;;;;;5135591;27;20030;-87
2022/05/07 06:10:57;;;;;;;4.30;3.40;;;;;;;;;;5117031;27;20478;-86
2022/05/07 06:13:24;;;;;;;6.70;4.13;;;;;;;;;;5116982;27;20019;-84
2022/05/07 06:15:52;;;;;;;9.15;3.92;;;;;;;;;;5134881;27;20023;-87
2022/05/07 06:18:22;;;;;;;7.55;4.10;;;;;;;;;;5135873;27;20027;-88
2022/05/07 06:20:49;;;;;;;10.55;4.15;;;;;;;;;;5117016;27;20023;-85
2022/05/07 06:23:15;;;;;;;6.88;4.38;;;;;;;;;;5116743;27;20034;-83
2022/05/07 06:28:25;;;;;;;8.82;4.40;;;;;;;;;;5134418;27;20026;-84
2022/05/07 06:30:51;;;;;;;8.77;4.30;;;;;;;;;;5116259;27;20019;-82
2022/05/07 06:33:17;;;;;;;7.35;3.92;;;;;;;;;;5135164;27;20030;-84
2022/05/07 06:35:43;;;;;;;6.10;4.07;;;;;;;;;;5135283;27;20133;-84
2022/05/07 06:38:09;;;;;;;9.88;3.60;;;;;;;;;;5116165;27;20027;-84
2022/05/07 06:40:37;;;;;;;4.85;3.60;;;;;;;;;;5135130;27;20015;-87
2022/05/07 06:43:03;;;;;;;6.35;3.95;;;;;;;;;;5135033;27;20082;-85
2022/05/07 06:45:29;;;;;;;6.97;3.55;;;;;;;;;;5129593;27;20034;-81
2022/05/07 06:47:54;;;;;;;9.05;4.20;;;;;;;;;;5131881;27;20034;-83
2022/05/07 06:50:20;;;;;;;4.80;3.50;;;;;;;;;;5116348;27;20031;-84
2022/05/07 06:52:46;;;;;;;5.43;3.70;;;;;;;;;;5134391;27;20466;-83
2022/05/07 06:55:20;;;;;;;6.30;4.00;;;;;;;;;;5133954;27;20094;-84
2022/05/07 06:57:46;;;;;;;6.07;3.60;;;;;;;;;;5116331;27;20495;-83
2022/05/07 07:00:14;;;;;;;16.35;4.95;;;;;;;;;;5133379;27;20021;-83
2022/05/07 07:02:40;;;;;;;7.82;3.63;;;;;;;;;;5131741;27;20019;-82
2022/05/07 07:05:06;;;;;;;5.60;3.95;;;;;;;;;;5133063;27;20487;-81
2022/05/07 07:07:31;;;;;;;11.38;4.22;;;;;;;;;;5113895;27;20058;-83
2022/05/07 07:09:58;;;;;;;6.80;3.75;;;;;;;;;;5115419;27;20058;-84
2022/05/07 07:12:29;;;;;;;6.57;4.00;;;;;;;;;;5134322;27;20359;-83
2022/05/07 07:14:54;;;;;;;9.18;4.13;;;;;;;;;;5132008;27;20474;-82
2022/05/07 07:17:20;;;;;;;6.03;3.95;;;;;;;;;;5131468;27;20034;-82
2022/05/07 07:19:46;;;;;;;5.03;3.53;;;;;;;;;;5130941;27;20015;-82
2022/05/07 07:22:12;;;;;;;4.43;2.95;;;;;;;;;;5132646;27;20035;-84
2022/05/07 07:24:38;;;;;;;7.78;3.42;;;;;;;;;;5133311;27;20031;-82
2022/05/07 07:27:05;;;;;;;6.53;4.40;;;;;;;;;;5132451;27;20031;-83
2022/05/07 07:29:30;;;;;;;5.30;3.38;;;;;;;;;;5114531;27;20395;-82
2022/05/07 07:31:56;;;;;;;4.68;2.97;;;;;;;;;;5131661;27;20023;-83
2022/05/07 07:34:22;;;;;;;5.13;3.30;;;;;;;;;;5132330;27;20030;-82
2022/05/07 07:36:50;;;;;;;4.97;3.00;;;;;;;;;;5111595;27;20023;-81
2022/05/07 07:39:16;;;;;;;5.82;3.30;;;;;;;;;;5113824;27;20023;-82
2022/05/07 07:41:41;;;;;;;8.18;3.17;;;;;;;;;;5110747;27;20554;-81
2022/05/07 07:44:09;;;;;;;5.13;3.05;;;;;;;;;;5130655;27;20034;-82
2022/05/07 07:49:20;;;;;;;7.10;3.28;;;;;;;;;;5131290;27;20123;-83
2022/05/07 07:51:45;;;;;;;6.88;3.10;;;;;;;;;;5132417;27;20041;-83
2022/05/07 07:54:11;;;;;;;8.00;3.60;;;;;;;;;;5111453;27;20030;-81
2022/05/07 07:56:37;;;;;;;3.92;3.35;;;;;;;;;;5131510;27;20027;-82
2022/05/07 07:59:02;;;;;;;4.68;3.83;;;;;;;;;;5130038;27;20030;-81
2022/05/07 08:01:28;;;;;;;4.03;3.15;;;;;;;;;;5112410;27;20035;-82
2022/05/07 08:03:53;;;;;;;6.63;3.70;;;;;;;;;;5129792;27;20069;-82
2022/05/07 08:06:19;;;;;;;6.25;4.72;;;;;;;;;;5109834;27;20015;-83
2022/05/07 08:11:40;;;;;;;6.25;3.58;;;;;;;;;;5130100;27;20075;-82
2022/05/07 08:14:07;;;;;;;7.13;3.78;;;;;;;;;;5111250;27;20679;-83
2022/05/07 08:16:34;;;;;;;5.82;3.78;;;;;;;;;;5131909;27;20037;-83
2022/05/07 08:22:35;;;;;;;4.53;3.60;;;;;;;;;;5130489;27;20022;-83
2022/05/07 08:25:30;;;;;;;;;;;;;;;;;;;;;
2022/05/07 08:28:03;;;;;;;4.75;3.38;;;;;;;;;;5127534;27;20031;-83
2022/05/07 08:55:00;;;;;;;;;;;;;;;;;;;;;
2022/05/07 08:58:15;;;;;;;5.97;3.38;;;;;;;;;;4903046;29;20404;-85
2022/05/07 09:08:05;;;;;;;4.07;3.28;;;;;;;;;;4899362;29;20072;-85
2022/05/07 09:10:33;;;;;;;4.65;3.17;;;;;;;;;;4994760;28;20185;-84
2022/05/07 09:13:11;;;;;;;6.03;3.17;;;;;;;;;;5077947;28;20043;-87
2022/05/07 09:15:48;;;;;;;5.80;4.13;;;;;;;;;;5054387;28;20585;-85
2022/05/07 09:18:15;;;;;;;5.82;3.50;;;;;;;;;;5075396;28;20465;-84
2022/05/07 09:20:41;;;;;;;5.28;3.17;;;;;;;;;;5076992;28;20490;-85
2022/05/07 09:23:10;;;;;;;6.80;2.90;;;;;;;;;;5094842;28;20031;-86
2022/05/07 09:25:44;;;;;;;3.95;2.80;;;;;;;;;;5094387;28;20062;-86
2022/05/07 09:28:09;;;;;;;3.38;2.88;;;;;;;;;;5094258;28;20112;-83
2022/05/07 09:30:35;;;;;;;5.55;3.10;;;;;;;;;;5077046;28;20396;-85
2022/05/07 09:33:00;;;;;;;5.13;2.85;;;;;;;;;;5095083;28;20089;-85
2022/05/07 09:38:12;;;;;;;7.30;3.13;;;;;;;;;;5094293;28;20391;-83
2022/05/07 09:40:39;;;;;;;3.10;2.70;;;;;;;;;;5093113;28;20024;-85
2022/05/07 09:43:06;;;;;;;4.18;2.70;;;;;;;;;;5073402;28;20395;-85
2022/05/07 09:45:32;;;;;;;7.15;2.97;;;;;;;;;;5094419;28;20051;-83
2022/05/07 09:47:58;;;;;;;3.38;2.65;;;;;;;;;;5095450;28;20019;-84
2022/05/07 09:50:43;;;;;;;4.63;2.83;;;;;;;;;;5114491;28;20463;-85
2022/05/07 09:58:37;;;;;;;6.10;2.88;;;;;;;;;;5113781;28;20029;-85
2022/05/07 10:01:21;;;;;;;4.20;2.65;;;;;;;;;;5096644;28;20106;-83
2022/05/07 10:03:47;;;;;;;4.10;3.00;;;;;;;;;;5113042;28;20032;-84
2022/05/07 10:06:24;;;;;;;5.38;2.63;;;;;;;;;;5106667;28;20394;-85
2022/05/07 10:09:15;;;;;;;5.60;3.70;;;;;;;;;;5108855;28;20048;-86
2022/05/07 10:11:42;;;;;;;5.40;3.00;;;;;;;;;;5112055;28;20035;-84
2022/05/07 10:14:07;;;;;;;5.88;3.20;;;;;;;;;;5095686;28;20031;-84
2022/05/07 10:16:33;;;;;;;4.18;2.75;;;;;;;;;;5096121;28;20039;-84
2022/05/07 10:19:10;;;;;;;5.60;3.70;;;;;;;;;;5112311;28;20128;-86
2022/05/07 10:21:36;;;;;;;5.60;2.70;;;;;;;;;;5093657;28;20036;-85
2022/05/07 10:24:02;;;;;;;4.50;2.80;;;;;;;;;;5095349;28;20109;-87
2022/05/07 10:26:39;;;;;;;4.85;2.70;;;;;;;;;;5095433;28;20028;-87
2022/05/07 10:29:07;;;;;;;3.90;2.22;;;;;;;;;;5091435;28;20039;-84
2022/05/07 10:31:44;;;;;;;3.70;2.63;;;;;;;;;;5095181;28;20061;-85
2022/05/07 10:34:09;;;;;;;3.78;2.55;;;;;;;;;;5095472;28;20035;-84
2022/05/07 10:36:35;;;;;;;6.97;2.75;;;;;;;;;;5111445;28;20080;-86
2022/05/07 10:39:08;;;;;;;4.35;2.38;;;;;;;;;;5095903;28;20408;-85
2022/05/07 10:41:46;;;;;;;3.83;2.15;;;;;;;;;;5094064;28;20057;-85
2022/05/07 10:44:11;;;;;;;4.65;2.63;;;;;;;;;;5107340;28;20111;-84
2022/05/07 10:46:45;;;;;;;6.45;2.03;;;;;;;;;;5104146;28;20502;-84
2022/05/07 10:49:11;;;;;;;3.55;1.92;;;;;;;;;;5097657;28;20063;-86
2022/05/07 10:51:39;;;;;;;3.42;2.40;;;;;;;;;;5098403;28;20066;-84
2022/05/07 10:54:23;;;;;;;3.45;2.40;;;;;;;;;;5102142;28;20571;-83
2022/05/07 10:56:50;;;;;;;3.13;2.15;;;;;;;;;;5085167;28;20077;-84
2022/05/07 10:59:17;;;;;;;6.57;2.72;;;;;;;;;;5094427;28;20048;-84
2022/05/07 11:01:42;;;;;;;5.28;2.50;;;;;;;;;;5095609;28;20102;-84
2022/05/07 11:04:12;;;;;;;5.15;2.30;;;;;;;;;;5078526;28;20036;-84
2022/05/07 11:06:43;;;;;;;6.28;3.38;;;;;;;;;;5105380;28;20030;-84
2022/05/07 11:09:25;;;;;;;6.72;2.80;;;;;;;;;;5072213;28;20039;-86
2022/05/07 11:11:54;;;;;;;3.72;2.40;;;;;;;;;;5081398;28;20032;-85
2022/05/07 11:14:23;;;;;;;4.43;2.13;;;;;;;;;;5083659;28;20027;-84
2022/05/07 11:16:48;;;;;;;4.57;2.03;;;;;;;;;;5105590;28;20047;-85
2022/05/07 11:19:24;;;;;;;4.28;2.33;;;;;;;;;;5084050;28;20047;-85
2022/05/07 11:21:52;;;;;;;3.88;2.30;;;;;;;;;;5098025;28;20028;-87
2022/05/07 11:24:20;;;;;;;8.57;1.88;;;;;;;;;;5100938;28;20028;-85
2022/05/07 11:26:51;;;;;;;3.60;2.10;;;;;;;;;;5096105;28;20032;-85
2022/05/07 11:29:17;;;;;;;5.70;2.45;;;;;;;;;;5100928;28;20093;-83
2022/05/07 11:31:42;;;;;;;5.40;2.30;;;;;;;;;;5081155;28;20519;-88
2022/05/07 11:34:10;;;;;;;2.75;1.88;;;;;;;;;;5099718;28;20031;-85
2022/05/07 11:36:36;;;;;;;6.35;2.05;;;;;;;;;;5079218;28;20059;-85
2022/05/07 11:39:05;;;;;;;2.67;1.85;;;;;;;;;;5101528;28;20062;-86
2022/05/07 11:41:31;;;;;;;5.93;3.10;;;;;;;;;;5085592;28;20073;-85
2022/05/07 11:46:57;;;;;;;5.82;2.08;;;;;;;;;;5106114;28;20116;-84
2022/05/07 11:49:30;;;;;;;5.30;2.75;;;;;;;;;;5098493;28;20056;-84
2022/05/07 11:52:10;;;;;;;4.60;2.53;;;;;;;;;;5100637;28;20024;-85
2022/05/07 11:54:36;;;;;;;3.40;2.10;;;;;;;;;;5082841;28;20043;-84
2022/05/07 11:57:02;;;;;;;2.28;1.88;;;;;;;;;;5104384;28;20023;-85
2022/05/07 11:59:28;;;;;;;3.53;2.10;;;;;;;;;;5097350;28;20020;-83
2022/05/07 12:01:54;;;;;;;5.38;2.70;;;;;;;;;;5084312;28;20062;-84
2022/05/07 12:04:19;;;;;;;5.32;2.53;;;;;;;;;;5091504;28;20035;-85
2022/05/07 12:06:55;;;;;;;5.30;2.63;;;;;;;;;;5093555;28;20031;-83
2022/05/07 12:09:21;;;;;;;3.17;2.15;;;;;;;;;;5093632;28;20549;-84
2022/05/07 12:11:48;;;;;;;4.93;2.75;;;;;;;;;;5103467;28;20024;-84
2022/05/07 12:14:14;;;;;;;7.45;2.88;;;;;;;;;;5091420;28;20016;-84
2022/05/07 12:19:32;;;;;;;7.65;3.22;;;;;;;;;;5098458;28;20031;-84
2022/05/07 12:30:14;;;;;;;4.40;2.05;;;;;;;;;;5099562;28;20078;-85
2022/05/07 12:32:43;;;;;;;3.63;1.73;;;;;;;;;;5103054;28;20050;-85
2022/05/07 12:35:09;;;;;;;5.85;1.92;;;;;;;;;;5090409;28;20028;-84
2022/05/07 12:37:35;;;;;;;2.90;1.70;;;;;;;;;;5101111;28;20528;-84
2022/05/07 12:40:01;;;;;;;3.38;1.80;;;;;;;;;;5096892;28;20095;-85
2022/05/07 12:42:26;;;;;;;5.38;1.70;;;;;;;;;;5095546;28;20102;-84
2022/05/07 12:44:52;;;;;;;3.35;1.85;;;;;;;;;;5093569;28;20074;-86
2022/05/07 12:47:18;;;;;;;2.58;1.65;;;;;;;;;;5105858;28;20044;-85
2022/05/07 12:49:43;;;;;;;1.92;1.35;;;;;;;;;;5107947;28;20020;-85
2022/05/07 12:52:09;;;;;;;4.03;2.10;;;;;;;;;;5109342;28;20426;-83
2022/05/07 12:54:36;;;;;;;3.72;1.60;;;;;;;;;;5106214;28;20467;-83
2022/05/07 12:57:02;;;;;;;4.38;1.67;;;;;;;;;;5107555;28;20062;-84
2022/05/07 12:59:28;;;;;;;5.15;2.00;;;;;;;;;;5106573;28;20391;-84
2022/05/07 13:01:54;;;;;;;3.72;2.10;;;;;;;;;;5110685;28;20372;-84
2022/05/07 13:04:22;;;;;;;4.72;1.95;;;;;;;;;;5108879;28;20073;-85
2022/05/07 13:06:48;;;;;;;4.38;1.95;;;;;;;;;;5107449;28;20566;-84
2022/05/07 13:09:13;;;;;;;7.40;2.10;;;;;;;;;;5108654;28;20043;-83
2022/05/07 13:11:39;;;;;;;6.93;1.92;;;;;;;;;;5110452;28;20433;-85
2022/05/07 13:14:04;;;;;;;2.03;1.70;;;;;;;;;;5108490;28;20024;-84
2022/05/07 13:16:30;;;;;;;4.03;2.10;;;;;;;;;;5090094;28;20352;-84
2022/05/07 13:18:55;;;;;;;3.40;1.75;;;;;;;;;;5106787;28;20054;-84
2022/05/07 13:21:22;;;;;;;4.78;2.03;;;;;;;;;;5090114;28;20043;-81
2022/05/07 13:23:47;;;;;;;3.85;1.80;;;;;;;;;;5109100;28;20111;-85
2022/05/07 13:26:13;;;;;;;6.25;2.03;;;;;;;;;;5110394;28;20457;-82
2022/05/07 13:28:38;;;;;;;2.58;1.98;;;;;;;;;;5090701;28;20025;-84
2022/05/07 13:31:04;;;;;;;3.58;2.13;;;;;;;;;;5111015;28;20023;-83
2022/05/07 13:33:30;;;;;;;3.50;2.10;;;;;;;;;;5108348;28;20043;-81
2022/05/07 13:35:56;;;;;;;3.20;1.85;;;;;;;;;;5109428;28;20055;-83
2022/05/07 13:38:22;;;;;;;2.40;1.80;;;;;;;;;;5107250;28;20024;-80
2022/05/07 13:40:49;;;;;;;3.15;1.50;;;;;;;;;;5106415;28;20020;-82
2022/05/07 13:43:14;;;;;;;3.97;1.98;;;;;;;;;;5108631;28;20035;-81
2022/05/07 13:45:40;;;;;;;4.53;2.20;;;;;;;;;;5110029;28;20052;-82
2022/05/07 13:48:07;;;;;;;2.92;1.90;;;;;;;;;;5109280;28;20386;-82
2022/05/07 13:50:33;;;;;;;3.95;2.22;;;;;;;;;;5104036;28;20463;-84
2022/05/07 13:52:59;;;;;;;2.13;1.90;;;;;;;;;;5109918;28;20031;-83
2022/05/07 13:55:25;;;;;;;4.68;2.10;;;;;;;;;;5109897;28;20375;-82
2022/05/07 13:57:50;;;;;;;5.38;2.28;;;;;;;;;;5109866;28;20040;-82
2022/05/07 14:00:17;;;;;;;2.20;1.52;;;;;;;;;;5088355;28;20041;-83
2022/05/07 14:02:44;;;;;;;7.40;4.85;;;;;;;;;;5108274;28;20525;-83
2022/05/07 14:05:10;;;;;;;6.13;3.38;;;;;;;;;;5108303;28;20047;-83
2022/05/07 14:07:37;;;;;;;4.47;3.17;;;;;;;;;;5109170;28;20081;-83
2022/05/07 14:10:03;;;;;;;5.55;3.58;;;;;;;;;;5110254;28;20038;-83
2022/05/07 14:12:29;;;;;;;2.33;1.65;;;;;;;;;;5095462;28;20045;-85
2022/05/07 14:14:54;;;;;;;5.45;2.70;;;;;;;;;;5095560;28;20479;-83
2022/05/07 14:17:21;;;;;;;3.53;2.22;;;;;;;;;;5113076;28;20031;-83
2022/05/07 14:19:46;;;;;;;3.60;1.85;;;;;;;;;;5113607;28;20463;-83
2022/05/07 14:22:12;;;;;;;10.98;5.72;;;;;;;;;;5093445;28;20085;-83
2022/05/07 14:24:39;;;;;;;3.80;2.22;;;;;;;;;;5091983;28;20024;-83
2022/05/07 14:27:04;;;;;;;11.95;2.95;;;;;;;;;;5113436;28;20027;-81
2022/05/07 14:29:30;;;;;;;6.95;1.85;;;;;;;;;;5111920;28;20106;-85
2022/05/07 14:31:56;;;;;;;5.95;2.00;;;;;;;;;;5112620;28;20027;-82
2022/05/07 14:34:22;;;;;;;7.40;1.70;;;;;;;;;;5111351;28;20030;-82
2022/05/07 14:36:48;;;;;;;4.95;2.80;;;;;;;;;;5110857;28;20054;-82
2022/05/07 14:39:14;;;;;;;4.03;2.25;;;;;;;;;;5112553;28;20047;-84
2022/05/07 14:41:39;;;;;;;3.33;1.98;;;;;;;;;;5092374;28;20075;-85
2022/05/07 14:44:06;;;;;;;2.47;1.70;;;;;;;;;;5095070;28;20020;-83
2022/05/07 14:46:32;;;;;;;4.25;2.40;;;;;;;;;;5112877;28;20036;-83
2022/05/07 14:48:57;;;;;;;3.67;1.98;;;;;;;;;;5091531;28;20058;-85
2022/05/07 14:51:23;;;;;;;5.00;2.13;;;;;;;;;;5113067;28;20058;-84
2022/05/07 14:53:48;;;;;;;5.50;2.40;;;;;;;;;;5093491;28;20031;-85
2022/05/07 14:56:14;;;;;;;4.22;1.90;;;;;;;;;;5112698;28;20482;-85
2022/05/07 14:58:40;;;;;;;5.20;2.60;;;;;;;;;;5111427;28;20448;-84
2022/05/07 15:01:07;;;;;;;2.97;2.08;;;;;;;;;;5112944;28;20106;-81
2022/05/07 15:03:34;;;;;;;3.67;1.98;;;;;;;;;;5111243;28;20027;-85
2022/05/07 15:06:01;;;;;;;3.63;2.20;;;;;;;;;;5110623;28;20043;-84
2022/05/07 15:11:11;;;;;;;3.97;1.98;;;;;;;;;;5110986;28;20047;-83
2022/05/07 15:13:37;;;;;;;3.28;2.10;;;;;;;;;;5094946;28;20475;-88
2022/05/07 15:16:02;;;;;;;4.78;2.17;;;;;;;;;;5110153;28;20374;-86
2022/05/07 15:18:28;;;;;;;4.20;1.83;;;;;;;;;;5111165;28;20439;-85
2022/05/07 15:20:53;;;;;;;3.90;2.20;;;;;;;;;;5110347;28;20027;-83
2022/05/07 15:23:19;;;;;;;4.65;2.28;;;;;;;;;;5110248;28;20016;-83
2022/05/07 15:25:44;;;;;;;2.80;1.98;;;;;;;;;;5094351;28;20039;-83
2022/05/07 15:28:10;;;;;;;4.28;2.03;;;;;;;;;;5093486;28;20852;-83
2022/05/07 15:30:36;;;;;;;5.07;1.90;;;;;;;;;;5108161;28;20027;-85
2022/05/07 15:38:31;;;;;;;3.05;2.00;;;;;;;;;;5110167;28;20061;-84
2022/05/07 15:40:56;;;;;;;4.20;2.10;;;;;;;;;;5109865;28;20043;-85
2022/05/07 15:43:22;;;;;;;4.25;2.38;;;;;;;;;;5109843;28;20066;-85
2022/05/07 15:45:48;;;;;;;4.68;2.65;;;;;;;;;;5107339;28;20131;-82
2022/05/07 15:48:14;;;;;;;3.88;2.65;;;;;;;;;;5094156;28;20108;-84
2022/05/07 15:50:41;;;;;;;3.35;1.90;;;;;;;;;;5089965;28;20467;-84
2022/05/07 15:53:06;;;;;;;2.90;2.00;;;;;;;;;;5106777;28;20023;-83
2022/05/07 15:55:35;;;;;;;4.15;2.10;;;;;;;;;;5099570;28;20526;-83
2022/05/07 15:58:01;;;;;;;3.47;2.10;;;;;;;;;;5094145;28;20063;-84
2022/05/07 16:00:27;;;;;;;6.15;2.53;;;;;;;;;;5109868;28;20016;-87
2022/05/07 16:02:52;;;;;;;3.28;2.20;;;;;;;;;;5101968;28;20092;-86
2022/05/07 16:05:18;;;;;;;4.25;2.53;;;;;;;;;;5108032;28;20030;-84
2022/05/07 16:07:44;;;;;;;4.55;2.60;;;;;;;;;;5093646;28;20034;-84
2022/05/07 16:10:10;;;;;;;5.18;2.78;;;;;;;;;;5092848;28;20023;-83
2022/05/07 16:12:36;;;;;;;4.00;2.50;;;;;;;;;;5112045;28;20028;-85